首页
METAR-TAF:

METAR-TAF

机场 :

Curtis L. Brown Jr. Field

Elizabethtown, 北卡罗来纳州, 美国

纬度: 34-36N, 经度: 078-35W, 海拔: 40米

当前天气观测

该预报发布于40分钟前的13:55 UTC
风速7节,风向北转西北
温度 3°C
湿度 75%
气压 1023 hPa
能見度: 16.1公里
阴天层高于9500英尺

METAR: KEYF 111355Z AUTO 33007KT 10SM OVC095 03/M01 A3020 RMK AO2 PWINO T00261010

时间: 09:35 (14:35 UTC)


TAF: 丢失

超过4000个机场的气象观测和天气预报(METAR&TAF报告)。

可查询的气象台以黄色和红色小点在地图上表示。

将鼠标移到小点上方,可查看气象台名称。

然后点击查看天气观测和预报。

如需切换地图:点击带黑十字的绿色按钮放大地图;点击带横线的绿色按钮缩小地图;或者点击绿色箭头查看邻近地区的地图。


METAR-TAF: